createdAt,value
2018-05-14T00:02:46.082Z,16.90
2018-05-14T00:05:48.530Z,16.80
2018-05-14T00:08:50.993Z,16.70
2018-05-14T00:11:53.442Z,16.70
2018-05-14T00:14:55.907Z,16.70
2018-05-14T00:17:58.357Z,16.70
2018-05-14T00:21:00.801Z,16.60
2018-05-14T00:24:03.250Z,16.60
2018-05-14T00:27:05.699Z,16.50
2018-05-14T00:30:08.149Z,16.50
2018-05-14T00:33:11.374Z,16.50
2018-05-14T00:36:13.809Z,16.50
2018-05-14T00:39:16.268Z,16.50
2018-05-14T00:42:18.713Z,16.50
2018-05-14T00:45:21.175Z,16.50
2018-05-14T00:48:23.652Z,16.40
2018-05-14T00:51:26.085Z,16.30
2018-05-14T00:54:28.553Z,16.20
2018-05-14T00:57:30.994Z,16.10
2018-05-14T01:00:33.466Z,16.10
2018-05-14T01:03:35.918Z,15.90
2018-05-14T01:06:38.378Z,15.80
2018-05-14T01:09:40.823Z,15.90
2018-05-14T01:12:43.278Z,15.80
2018-05-14T01:15:45.740Z,15.80
2018-05-14T01:18:48.195Z,15.70
2018-05-14T01:21:50.645Z,15.60
2018-05-14T01:24:58.905Z,15.60
2018-05-14T01:28:01.343Z,15.60
2018-05-14T01:31:03.798Z,15.60
2018-05-14T01:34:06.265Z,15.60
2018-05-14T01:37:08.708Z,15.60
2018-05-14T01:40:11.162Z,15.50
2018-05-14T01:43:14.390Z,15.50
2018-05-14T01:46:16.833Z,15.50
2018-05-14T01:49:19.290Z,15.50
2018-05-14T01:52:21.737Z,15.60
2018-05-14T01:55:24.193Z,15.60
2018-05-14T01:58:26.649Z,15.70
2018-05-14T02:01:29.862Z,15.80
2018-05-14T02:04:32.321Z,15.70
2018-05-14T02:07:35.535Z,15.70
2018-05-14T02:10:37.995Z,15.70
2018-05-14T02:13:41.214Z,15.60
2018-05-14T02:16:43.666Z,15.50
2018-05-14T02:19:46.882Z,15.40
2018-05-14T02:22:49.335Z,15.40
2018-05-14T02:25:51.794Z,15.40
2018-05-14T02:28:54.249Z,15.40
2018-05-14T02:31:56.699Z,15.30
2018-05-14T02:34:59.157Z,15.30
2018-05-14T02:38:01.609Z,15.30
2018-05-14T02:41:04.829Z,15.30
2018-05-14T02:44:07.286Z,15.30
2018-05-14T02:47:09.737Z,15.30
2018-05-14T02:50:12.199Z,15.30
2018-05-14T02:53:14.647Z,15.30
2018-05-14T02:56:17.108Z,15.30
2018-05-14T02:59:19.580Z,15.30
2018-05-14T03:02:22.014Z,15.20
2018-05-14T03:05:24.471Z,15.20
2018-05-14T03:08:26.918Z,15.20
2018-05-14T03:11:29.375Z,15.10
2018-05-14T03:14:32.606Z,15.20
2018-05-14T03:17:35.043Z,15.20
2018-05-14T03:20:38.274Z,15.20
2018-05-14T03:23:40.742Z,15.10
2018-05-14T03:26:43.211Z,15.10
2018-05-14T03:29:45.677Z,15.20
2018-05-14T03:32:48.132Z,15.20
2018-05-14T03:35:50.581Z,15.20
2018-05-14T03:38:53.033Z,15.20
2018-05-14T03:41:55.493Z,15.20
2018-05-14T03:44:57.941Z,15.20
2018-05-14T03:48:01.158Z,15.00
2018-05-14T03:51:03.611Z,15.00
2018-05-14T03:54:06.054Z,15.00
2018-05-14T03:57:08.514Z,15.10
2018-05-14T04:00:22.906Z,15.20
2018-05-14T04:07:04.186Z,15.30
2018-05-14T04:10:06.639Z,15.30
2018-05-14T04:13:09.093Z,15.40
2018-05-14T04:16:11.553Z,15.40
2018-05-14T04:19:14.003Z,15.50
2018-05-14T04:22:16.453Z,15.40
2018-05-14T04:25:18.932Z,15.50
2018-05-14T04:28:21.366Z,15.50
2018-05-14T04:31:24.589Z,15.60
2018-05-14T04:34:27.033Z,15.60
2018-05-14T04:37:29.498Z,15.70
2018-05-14T04:40:31.949Z,15.80
2018-05-14T04:43:34.399Z,15.80
2018-05-14T04:46:36.857Z,15.90
2018-05-14T04:49:39.300Z,16.00
2018-05-14T04:52:41.757Z,16.10
2018-05-14T04:55:44.282Z,16.10
2018-05-14T04:58:46.660Z,16.10
2018-05-14T05:01:49.881Z,16.30
2018-05-14T05:04:52.323Z,16.30
2018-05-14T05:07:55.546Z,16.40
2018-05-14T05:10:58.001Z,16.40
2018-05-14T05:14:01.210Z,16.80
2018-05-14T05:17:03.748Z,16.70
2018-05-14T05:20:06.125Z,17.20
2018-05-14T05:23:08.577Z,17.60
2018-05-14T05:26:11.034Z,17.90
2018-05-14T05:29:13.474Z,18.80
2018-05-14T05:32:16.697Z,22.90
2018-05-14T05:35:19.141Z,22.80
2018-05-14T05:38:22.374Z,25.50
2018-05-14T05:41:24.829Z,25.50
2018-05-14T05:44:27.281Z,26.40
2018-05-14T05:47:29.738Z,27.30
2018-05-14T05:50:32.185Z,27.90
2018-05-14T05:53:34.639Z,28.10
2018-05-14T05:56:37.103Z,28.60
2018-05-14T05:59:40.306Z,28.90
2018-05-14T06:02:42.758Z,28.90
2018-05-14T06:05:45.972Z,29.10
2018-05-14T06:08:49.189Z,29.10
2018-05-14T06:11:51.633Z,29.10
2018-05-14T06:14:54.985Z,29.10
2018-05-14T06:17:57.437Z,29.10
2018-05-14T06:20:59.884Z,29.10
2018-05-14T06:24:03.105Z,29.10
2018-05-14T06:27:18.171Z,29.10
2018-05-14T06:30:20.618Z,29.40
2018-05-14T06:33:23.085Z,29.60
2018-05-14T06:36:25.548Z,29.70
2018-05-14T06:39:28.002Z,29.90
2018-05-14T06:42:30.453Z,29.60
2018-05-14T06:45:32.899Z,29.80
2018-05-14T06:48:36.123Z,29.90
2018-05-14T06:51:38.574Z,29.90
2018-05-14T06:54:41.034Z,29.70
2018-05-14T06:57:43.482Z,30.10
2018-05-14T07:00:45.917Z,29.40
2018-05-14T07:03:48.378Z,28.80
2018-05-14T07:06:51.605Z,28.20
2018-05-14T07:10:08.628Z,28.10
2018-05-14T07:13:32.127Z,28.40
2018-05-14T07:16:47.687Z,28.60
2018-05-14T07:19:56.804Z,28.50
2018-05-14T07:22:59.351Z,28.00
2018-05-14T07:26:11.826Z,27.60
2018-05-14T07:29:28.486Z,27.80
2018-05-14T07:32:33.674Z,27.90
2018-05-14T07:35:37.132Z,27.90
2018-05-14T07:38:46.371Z,27.70
2018-05-14T07:41:49.734Z,27.70
2018-05-14T07:45:11.431Z,27.60
2018-05-14T07:48:19.373Z,27.90
2018-05-14T07:51:28.398Z,28.40
2018-05-14T07:54:30.861Z,28.40
2018-05-14T07:57:33.305Z,29.00
2018-05-14T08:00:35.777Z,29.20
2018-05-14T08:03:38.230Z,29.10
2018-05-14T08:06:58.431Z,28.40
2018-05-14T08:10:04.986Z,28.40
2018-05-14T08:13:08.378Z,28.60
2018-05-14T08:16:11.599Z,28.80
2018-05-14T08:19:18.970Z,28.70
2018-05-14T08:22:39.393Z,28.80
2018-05-14T08:25:52.666Z,28.80
2018-05-14T08:28:55.126Z,28.30
2018-05-14T08:32:01.633Z,27.90
2018-05-14T08:35:05.042Z,28.00
2018-05-14T08:38:08.429Z,27.70
2018-05-14T08:41:10.897Z,27.70
2018-05-14T08:44:23.605Z,27.60
2018-05-14T08:47:26.045Z,27.30
2018-05-14T08:50:28.515Z,27.30
2018-05-14T08:53:41.058Z,27.10
2018-05-14T08:56:43.515Z,27.10
2018-05-14T09:00:07.110Z,27.20
2018-05-14T09:03:21.870Z,27.10
2018-05-14T09:09:54.217Z,26.70
2018-05-14T09:12:57.487Z,27.40
2018-05-14T09:19:34.096Z,27.50
2018-05-14T09:22:55.748Z,27.10
2018-05-14T09:26:10.833Z,27.10
2018-05-14T09:29:18.090Z,27.20
2018-05-14T09:32:26.791Z,26.50
2018-05-14T09:35:29.241Z,26.50
2018-05-14T09:38:31.694Z,26.20
2018-05-14T09:41:34.145Z,25.90
2018-05-14T09:44:52.114Z,25.50
2018-05-14T09:47:54.571Z,25.40
2018-05-14T09:50:57.788Z,25.30
2018-05-14T09:54:00.225Z,25.20
2018-05-14T09:57:02.686Z,25.40
2018-05-14T10:00:05.139Z,25.50
2018-05-14T10:03:07.589Z,25.50
2018-05-14T10:06:10.051Z,25.50
2018-05-14T10:09:13.257Z,25.30
2018-05-14T10:12:15.714Z,25.30
2018-05-14T10:15:18.947Z,25.10
2018-05-14T10:18:21.381Z,25.10
2018-05-14T10:21:24.602Z,25.10
2018-05-14T10:24:27.046Z,25.10
2018-05-14T10:27:29.497Z,25.20
2018-05-14T10:30:32.055Z,25.30
2018-05-14T10:33:34.502Z,25.20
2018-05-14T10:36:36.956Z,25.00
2018-05-14T10:39:40.168Z,24.90
2018-05-14T10:42:42.636Z,24.90
2018-05-14T10:45:45.849Z,24.90
2018-05-14T10:48:48.292Z,24.90
2018-05-14T10:51:50.750Z,24.90
2018-05-14T10:54:53.189Z,24.90
2018-05-14T10:57:55.899Z,24.80
2018-05-14T11:00:58.350Z,24.70
2018-05-14T11:04:00.801Z,24.70
2018-05-14T11:07:04.019Z,24.80
2018-05-14T11:10:06.470Z,24.80
2018-05-14T11:13:09.686Z,25.00
2018-05-14T11:16:12.141Z,25.00
2018-05-14T11:19:15.355Z,24.70
2018-05-14T11:22:17.823Z,24.70
2018-05-14T11:25:20.254Z,24.60
2018-05-14T11:28:26.022Z,24.60
2018-05-14T11:31:28.570Z,24.60
2018-05-14T11:34:31.013Z,24.70
2018-05-14T11:37:33.484Z,24.40
2018-05-14T11:40:35.928Z,24.30
2018-05-14T11:43:38.378Z,24.30
2018-05-14T11:46:40.833Z,24.30
2018-05-14T11:49:43.279Z,24.30
2018-05-14T11:52:46.497Z,24.50
2018-05-14T11:55:48.937Z,24.50
2018-05-14T11:58:52.161Z,24.50
2018-05-14T12:01:54.613Z,24.50
2018-05-14T12:04:57.830Z,24.30
2018-05-14T12:08:00.290Z,24.20
2018-05-14T12:11:03.502Z,24.70
2018-05-14T12:14:05.954Z,24.60
2018-05-14T12:17:08.405Z,24.90
2018-05-14T12:20:10.866Z,25.10
2018-05-14T12:23:13.317Z,25.10
2018-05-14T12:26:15.766Z,24.90
2018-05-14T12:29:18.990Z,24.40
2018-05-14T12:32:21.454Z,24.40
2018-05-14T12:35:23.893Z,24.40
2018-05-14T12:38:26.341Z,24.60
2018-05-14T12:41:28.789Z,24.80
2018-05-14T12:44:31.241Z,24.80
2018-05-14T12:47:34.482Z,24.70
2018-05-14T12:50:36.920Z,24.70
2018-05-14T12:53:40.143Z,24.90
2018-05-14T12:56:42.589Z,24.90
2018-05-14T12:59:45.818Z,25.00
2018-05-14T13:02:48.274Z,25.00
2018-05-14T13:05:50.717Z,25.00
2018-05-14T13:08:53.170Z,24.90
2018-05-14T13:12:05.976Z,24.80
2018-05-14T13:15:08.430Z,24.80
2018-05-14T13:18:10.893Z,24.70
2018-05-14T13:21:13.340Z,24.60
2018-05-14T13:24:15.806Z,24.60
2018-05-14T13:27:18.248Z,24.50
2018-05-14T13:30:20.706Z,24.40
2018-05-14T13:33:23.165Z,24.50
2018-05-14T13:36:26.378Z,24.70
2018-05-14T13:39:28.834Z,24.70
2018-05-14T13:42:32.046Z,24.80
2018-05-14T13:45:34.502Z,24.80
2018-05-14T13:48:37.730Z,25.10
2018-05-14T13:51:40.178Z,25.00
2018-05-14T13:54:43.403Z,24.80
2018-05-14T13:57:45.849Z,24.80
2018-05-14T14:00:49.075Z,24.40
2018-05-14T14:03:51.536Z,24.40
2018-05-14T14:06:53.979Z,24.30
2018-05-14T14:09:57.570Z,24.20
2018-05-14T14:13:00.019Z,24.30
2018-05-14T14:16:02.490Z,24.30
2018-05-14T14:19:04.949Z,24.30
2018-05-14T14:22:07.393Z,24.30
2018-05-14T14:25:10.621Z,24.20
2018-05-14T14:28:13.074Z,24.20
2018-05-14T14:31:15.531Z,24.30
2018-05-14T14:34:17.984Z,24.40
2018-05-14T14:40:48.897Z,24.40
2018-05-14T14:43:51.285Z,24.20
2018-05-14T14:46:53.752Z,24.20
2018-05-14T14:49:56.214Z,24.10
2018-05-14T14:52:59.421Z,24.10
2018-05-14T14:56:01.885Z,24.10
2018-05-14T14:59:05.098Z,24.40
2018-05-14T15:02:07.558Z,24.30
2018-05-14T15:05:10.014Z,24.40
2018-05-14T15:08:12.469Z,24.30
2018-05-14T15:11:14.922Z,24.20
2018-05-14T15:14:17.371Z,24.00
2018-05-14T15:17:19.826Z,24.00
2018-05-14T15:20:23.045Z,24.00
2018-05-14T15:23:25.490Z,24.00
2018-05-14T15:26:27.950Z,24.10
2018-05-14T15:29:30.394Z,24.20
2018-05-14T15:32:32.851Z,24.30
2018-05-14T15:35:35.309Z,24.40
2018-05-14T15:38:38.546Z,24.00
2018-05-14T15:41:41.006Z,24.00
2018-05-14T15:44:43.454Z,23.90
2018-05-14T15:47:46.674Z,23.90
2018-05-14T15:50:49.129Z,23.90
2018-05-14T15:53:51.576Z,23.80
2018-05-14T15:56:54.023Z,23.70
2018-05-14T15:59:56.469Z,23.60
2018-05-14T16:02:58.922Z,23.50
2018-05-14T16:06:01.377Z,23.50
2018-05-14T16:09:03.826Z,23.40
2018-05-14T16:12:06.290Z,23.20
2018-05-14T16:15:08.733Z,23.10
2018-05-14T16:18:11.965Z,23.00
2018-05-14T16:21:14.428Z,23.00
2018-05-14T16:24:16.873Z,22.90
2018-05-14T16:27:19.337Z,22.80
2018-05-14T16:30:21.787Z,22.80
2018-05-14T16:33:25.081Z,22.70
2018-05-14T16:36:27.465Z,22.70
2018-05-14T16:39:29.919Z,22.60
2018-05-14T16:42:32.373Z,22.60
2018-05-14T16:45:34.822Z,22.60
2018-05-14T16:48:37.278Z,22.50
2018-05-14T16:51:39.741Z,22.50
2018-05-14T16:54:42.182Z,22.50
2018-05-14T16:57:44.648Z,22.40
2018-05-14T17:00:47.870Z,22.30
2018-05-14T17:03:50.309Z,22.30
2018-05-14T17:06:53.574Z,22.20
2018-05-14T17:09:56.017Z,22.20
2018-05-14T17:12:58.480Z,22.20
2018-05-14T17:16:00.917Z,22.10
2018-05-14T17:19:03.374Z,22.10
2018-05-14T17:22:05.841Z,22.00
2018-05-14T17:25:08.289Z,22.00
2018-05-14T17:28:10.750Z,21.90
2018-05-14T17:31:13.960Z,21.80
2018-05-14T17:34:16.422Z,21.80
2018-05-14T17:37:19.637Z,21.60
2018-05-14T17:40:22.083Z,21.60
2018-05-14T17:43:25.305Z,21.50
2018-05-14T17:46:27.754Z,21.40
2018-05-14T17:49:30.224Z,21.40
2018-05-14T17:52:32.669Z,21.30
2018-05-14T17:55:35.121Z,21.20
2018-05-14T17:58:37.569Z,21.10
2018-05-14T18:01:40.791Z,21.00
2018-05-14T18:04:43.251Z,20.90
2018-05-14T18:07:45.705Z,20.90
2018-05-14T18:10:49.008Z,20.70
2018-05-14T18:13:51.390Z,20.70
2018-05-14T18:16:54.603Z,20.60
2018-05-14T18:20:02.833Z,20.60
2018-05-14T18:23:05.286Z,20.50
2018-05-14T18:26:13.432Z,20.40
2018-05-14T18:29:21.520Z,20.40
2018-05-14T18:32:23.983Z,20.30
2018-05-14T18:35:26.427Z,20.20
2018-05-14T18:38:28.888Z,20.10
2018-05-14T18:41:31.325Z,20.00
2018-05-14T18:44:33.798Z,19.90
2018-05-14T18:47:36.266Z,19.90
2018-05-14T18:50:38.702Z,19.80
2018-05-14T18:53:41.162Z,19.80
2018-05-14T18:56:43.609Z,19.70
2018-05-14T18:59:46.074Z,19.60
2018-05-14T19:02:48.525Z,19.50
2018-05-14T19:05:51.754Z,19.40
2018-05-14T19:08:54.218Z,19.40
2018-05-14T19:11:56.660Z,19.30
2018-05-14T19:15:04.807Z,19.20
2018-05-14T19:18:07.260Z,19.10
2018-05-14T19:21:10.473Z,19.10
2018-05-14T19:24:12.922Z,19.00
2018-05-14T19:27:15.371Z,19.00
2018-05-14T19:30:17.830Z,18.90
2018-05-14T19:33:25.950Z,18.80
2018-05-14T19:36:28.411Z,18.80
2018-05-14T19:39:36.612Z,18.70
2018-05-14T19:42:39.050Z,18.70
2018-05-14T19:45:41.516Z,18.50
2018-05-14T19:48:43.974Z,18.50
2018-05-14T19:51:46.425Z,18.50
2018-05-14T19:54:48.886Z,18.50
2018-05-14T19:57:51.357Z,18.40
2018-05-14T20:00:53.840Z,18.40
2018-05-14T20:03:56.257Z,18.30
2018-05-14T20:06:58.719Z,18.30
2018-05-14T20:10:01.185Z,18.30
2018-05-14T20:13:03.626Z,18.20
2018-05-14T20:16:06.858Z,18.20
2018-05-14T20:19:09.318Z,18.20
2018-05-14T20:22:11.762Z,18.10
2018-05-14T20:25:14.985Z,18.00
2018-05-14T20:28:17.430Z,18.00
2018-05-14T20:31:20.664Z,18.00
2018-05-14T20:34:23.128Z,18.00
2018-05-14T20:40:54.001Z,17.90
2018-05-14T20:43:57.226Z,17.80
2018-05-14T20:46:59.719Z,17.70
2018-05-14T20:50:02.175Z,17.70
2018-05-14T20:53:04.621Z,17.60
2018-05-14T20:56:07.841Z,17.50
2018-05-14T20:59:10.298Z,17.60
2018-05-14T21:02:13.514Z,17.50
2018-05-14T21:05:15.972Z,17.40
2018-05-14T21:08:19.186Z,17.30
2018-05-14T21:11:21.660Z,17.30
2018-05-14T21:14:24.115Z,17.30
2018-05-14T21:17:27.321Z,17.20
2018-05-14T21:20:29.778Z,17.20
2018-05-14T21:23:32.228Z,17.20
2018-05-14T21:26:35.452Z,17.20
2018-05-14T21:29:38.673Z,17.20
2018-05-14T21:32:41.118Z,17.20
2018-05-14T21:35:44.344Z,17.10
2018-05-14T21:38:46.785Z,17.10
2018-05-14T21:41:49.245Z,17.00
2018-05-14T21:44:51.698Z,17.00
2018-05-14T21:47:54.150Z,17.00
2018-05-14T21:50:56.601Z,16.90
2018-05-14T21:53:59.818Z,16.80
2018-05-14T21:57:02.283Z,16.80
2018-05-14T22:00:05.498Z,16.70
2018-05-14T22:03:07.954Z,16.70
2018-05-14T22:06:13.495Z,16.60
2018-05-14T22:09:16.710Z,16.60
2018-05-14T22:12:19.166Z,16.60
2018-05-14T22:15:22.389Z,16.50
2018-05-14T22:18:24.852Z,16.40
2018-05-14T22:21:27.301Z,16.40
2018-05-14T22:24:29.748Z,16.30
2018-05-14T22:27:32.205Z,16.30
2018-05-14T22:30:34.670Z,16.20
2018-05-14T22:33:37.130Z,16.20
2018-05-14T22:36:39.582Z,16.20
2018-05-14T22:39:42.032Z,16.10
2018-05-14T22:42:44.483Z,16.10
2018-05-14T22:45:46.950Z,16.00
2018-05-14T22:48:49.394Z,16.00
2018-05-14T22:51:51.846Z,16.00
2018-05-14T22:54:54.289Z,15.80
2018-05-14T22:57:56.751Z,15.80
2018-05-14T23:00:59.211Z,15.80
2018-05-14T23:04:02.422Z,15.70
2018-05-14T23:07:04.882Z,15.60
2018-05-14T23:10:08.088Z,15.50
2018-05-14T23:13:10.542Z,15.50
2018-05-14T23:16:13.778Z,15.40
2018-05-14T23:19:16.221Z,15.40
2018-05-14T23:22:19.445Z,15.40
2018-05-14T23:25:21.894Z,15.40
2018-05-14T23:28:25.117Z,15.40
2018-05-14T23:31:27.557Z,15.30
2018-05-14T23:34:30.778Z,15.30
2018-05-14T23:37:33.238Z,15.30
2018-05-14T23:40:35.681Z,15.20
2018-05-14T23:43:38.134Z,15.20
2018-05-14T23:46:40.583Z,15.20
2018-05-14T23:49:43.043Z,15.30
2018-05-14T23:52:46.270Z,15.10
2018-05-14T23:55:48.713Z,15.10
2018-05-14T23:58:51.929Z,15.10
